sensor_id;sensor_type;location;lat;lon;timestamp;pressure;altitude;pressure_sealevel;temperature;humidity
75188;BME280;63762;51.334;22.108;2023-05-10T00:04:53;102393.59;;;10.01;44.69
75188;BME280;63762;51.334;22.108;2023-05-10T00:15:00;102388.24;;;9.83;44.59
75188;BME280;63762;51.334;22.108;2023-05-10T00:25:08;102388.88;;;9.71;44.65
75188;BME280;63762;51.334;22.108;2023-05-10T00:35:15;102387.11;;;9.70;45.01
75188;BME280;63762;51.334;22.108;2023-05-10T00:45:22;102381.93;;;9.67;45.05
75188;BME280;63762;51.334;22.108;2023-05-10T00:55:30;102382.30;;;9.59;45.57
75188;BME280;63762;51.334;22.108;2023-05-10T01:05:36;102376.34;;;9.53;45.74
75188;BME280;63762;51.334;22.108;2023-05-10T01:15:43;102372.65;;;9.37;45.74
75188;BME280;63762;51.334;22.108;2023-05-10T01:26:06;102364.89;;;9.31;46.31
75188;BME280;63762;51.334;22.108;2023-05-10T01:46:24;102366.95;;;9.07;47.46
75188;BME280;63762;51.334;22.108;2023-05-10T01:56:30;102359.26;;;8.99;48.16
75188;BME280;63762;51.334;22.108;2023-05-10T02:06:33;102358.59;;;8.94;48.13
75188;BME280;63762;51.334;22.108;2023-05-10T02:16:35;102344.81;;;8.83;48.87
75188;BME280;63762;51.334;22.108;2023-05-10T02:26:38;102357.13;;;8.69;49.46
75188;BME280;63762;51.334;22.108;2023-05-10T02:36:41;102349.13;;;8.49;50.38
75188;BME280;63762;51.334;22.108;2023-05-10T02:46:47;102345.31;;;8.34;51.63
75188;BME280;63762;51.334;22.108;2023-05-10T02:56:57;102336.24;;;8.17;51.90
75188;BME280;63762;51.334;22.108;2023-05-10T03:07:02;102349.23;;;8.06;52.48
75188;BME280;63762;51.334;22.108;2023-05-10T03:17:18;102337.92;;;7.99;52.18
75188;BME280;63762;51.334;22.108;2023-05-10T03:27:22;102349.62;;;7.97;52.91
75188;BME280;63762;51.334;22.108;2023-05-10T03:37:25;102348.64;;;7.99;53.12
75188;BME280;63762;51.334;22.108;2023-05-10T03:47:30;102357.33;;;8.04;52.83
75188;BME280;63762;51.334;22.108;2023-05-10T03:57:37;102345.34;;;8.13;53.15
75188;BME280;63762;51.334;22.108;2023-05-10T04:07:44;102340.22;;;8.28;52.88
75188;BME280;63762;51.334;22.108;2023-05-10T04:17:52;102344.74;;;8.46;52.40
75188;BME280;63762;51.334;22.108;2023-05-10T04:27:59;102347.38;;;8.66;52.37
75188;BME280;63762;51.334;22.108;2023-05-10T04:38:06;102348.00;;;8.91;52.03
75188;BME280;63762;51.334;22.108;2023-05-10T04:48:13;102346.99;;;9.13;52.21
75188;BME280;63762;51.334;22.108;2023-05-10T04:58:20;102347.71;;;9.35;51.51
75188;BME280;63762;51.334;22.108;2023-05-10T05:08:27;102341.03;;;9.60;51.43
75188;BME280;63762;51.334;22.108;2023-05-10T05:18:34;102344.46;;;9.98;51.62
75188;BME280;63762;51.334;22.108;2023-05-10T05:28:42;102354.38;;;10.31;50.50
75188;BME280;63762;51.334;22.108;2023-05-10T05:38:49;102349.30;;;10.75;50.49
75188;BME280;63762;51.334;22.108;2023-05-10T05:48:56;102350.67;;;11.14;50.48
75188;BME280;63762;51.334;22.108;2023-05-10T05:59:03;102349.20;;;11.71;50.05
75188;BME280;63762;51.334;22.108;2023-05-10T06:09:10;102345.02;;;12.25;48.60
75188;BME280;63762;51.334;22.108;2023-05-10T06:19:17;102349.82;;;12.77;47.28
75188;BME280;63762;51.334;22.108;2023-05-10T06:29:24;102340.43;;;13.25;44.03
75188;BME280;63762;51.334;22.108;2023-05-10T06:39:32;102334.79;;;13.69;42.16
75188;BME280;63762;51.334;22.108;2023-05-10T06:49:39;102344.23;;;14.15;40.60
75188;BME280;63762;51.334;22.108;2023-05-10T06:59:46;102356.02;;;14.53;39.87
75188;BME280;63762;51.334;22.108;2023-05-10T07:09:53;102351.23;;;14.94;37.39
75188;BME280;63762;51.334;22.108;2023-05-10T07:20:00;102355.47;;;15.34;36.49
75188;BME280;63762;51.334;22.108;2023-05-10T07:30:08;102358.77;;;15.39;36.68
75188;BME280;63762;51.334;22.108;2023-05-10T07:40:15;102360.11;;;15.81;36.40
75188;BME280;63762;51.334;22.108;2023-05-10T07:50:21;102356.52;;;16.38;34.27
75188;BME280;63762;51.334;22.108;2023-05-10T08:00:28;102351.15;;;16.60;31.53
75188;BME280;63762;51.334;22.108;2023-05-10T08:10:36;102353.30;;;16.79;30.86
75188;BME280;63762;51.334;22.108;2023-05-10T08:20:43;102343.29;;;17.12;31.96
75188;BME280;63762;51.334;22.108;2023-05-10T08:30:50;102339.16;;;17.51;31.04
75188;BME280;63762;51.334;22.108;2023-05-10T08:40:58;102335.31;;;17.64;29.19
75188;BME280;63762;51.334;22.108;2023-05-10T08:51:04;102336.72;;;17.79;27.91
75188;BME280;63762;51.334;22.108;2023-05-10T09:01:12;102344.38;;;17.86;29.16
75188;BME280;63762;51.334;22.108;2023-05-10T09:11:20;102333.50;;;18.38;27.77
75188;BME280;63762;51.334;22.108;2023-05-10T09:21:26;102332.09;;;18.64;27.49
75188;BME280;63762;51.334;22.108;2023-05-10T09:41:47;102317.28;;;18.36;28.45
75188;BME280;63762;51.334;22.108;2023-05-10T10:02:02;102313.20;;;18.72;27.61
75188;BME280;63762;51.334;22.108;2023-05-10T10:12:04;102301.55;;;19.30;27.35
75188;BME280;63762;51.334;22.108;2023-05-10T10:22:08;102294.44;;;19.18;29.21
75188;BME280;63762;51.334;22.108;2023-05-10T10:32:25;102292.17;;;19.23;29.00
75188;BME280;63762;51.334;22.108;2023-05-10T10:52:42;102271.63;;;19.19;28.04
75188;BME280;63762;51.334;22.108;2023-05-10T11:02:45;102256.16;;;19.38;27.93
75188;BME280;63762;51.334;22.108;2023-05-10T11:23:13;102238.63;;;20.17;28.64
75188;BME280;63762;51.334;22.108;2023-05-10T11:33:17;102234.00;;;20.27;29.33
75188;BME280;63762;51.334;22.108;2023-05-10T11:43:23;102211.28;;;20.63;27.95
75188;BME280;63762;51.334;22.108;2023-05-10T11:53:27;102225.63;;;21.29;28.69
75188;BME280;63762;51.334;22.108;2023-05-10T12:03:28;102217.67;;;21.35;25.53
75188;BME280;63762;51.334;22.108;2023-05-10T12:13:30;102222.07;;;21.01;25.78
75188;BME280;63762;51.334;22.108;2023-05-10T12:23:34;102215.75;;;21.18;25.95
75188;BME280;63762;51.334;22.108;2023-05-10T12:33:45;102200.25;;;20.82;26.05
75188;BME280;63762;51.334;22.108;2023-05-10T12:43:48;102196.86;;;21.42;26.23
75188;BME280;63762;51.334;22.108;2023-05-10T12:53:55;102185.28;;;21.83;25.93
75188;BME280;63762;51.334;22.108;2023-05-10T13:04:02;102182.02;;;22.31;27.32
75188;BME280;63762;51.334;22.108;2023-05-10T13:14:09;102171.18;;;22.55;24.70
75188;BME280;63762;51.334;22.108;2023-05-10T13:24:16;102167.80;;;22.36;23.60
75188;BME280;63762;51.334;22.108;2023-05-10T13:34:23;102159.74;;;22.34;23.68
75188;BME280;63762;51.334;22.108;2023-05-10T13:44:31;102146.36;;;21.62;24.95
75188;BME280;63762;51.334;22.108;2023-05-10T13:54:38;102132.71;;;21.70;24.38
75188;BME280;63762;51.334;22.108;2023-05-10T14:04:45;102130.79;;;21.80;24.21
75188;BME280;63762;51.334;22.108;2023-05-10T14:14:52;102128.38;;;21.60;24.83
75188;BME280;63762;51.334;22.108;2023-05-10T14:24:59;102111.64;;;21.45;26.01
75188;BME280;63762;51.334;22.108;2023-05-10T14:35:06;102103.30;;;21.12;24.20
75188;BME280;63762;51.334;22.108;2023-05-10T14:45:14;102098.54;;;20.96;26.27
75188;BME280;63762;51.334;22.108;2023-05-10T14:55:20;102099.63;;;20.76;25.97
75188;BME280;63762;51.334;22.108;2023-05-10T15:05:28;102095.30;;;20.56;24.92
75188;BME280;63762;51.334;22.108;2023-05-10T15:15:35;102084.36;;;20.56;24.64
75188;BME280;63762;51.334;22.108;2023-05-10T15:25:42;102089.04;;;20.46;25.17
75188;BME280;63762;51.334;22.108;2023-05-10T15:35:49;102099.55;;;20.68;25.48
75188;BME280;63762;51.334;22.108;2023-05-10T15:45:57;102084.66;;;20.80;25.11
75188;BME280;63762;51.334;22.108;2023-05-10T15:56:04;102080.48;;;20.76;24.05
75188;BME280;63762;51.334;22.108;2023-05-10T16:06:10;102086.26;;;20.73;23.97
75188;BME280;63762;51.334;22.108;2023-05-10T16:16:17;102081.88;;;21.07;24.81
75188;BME280;63762;51.334;22.108;2023-05-10T16:26:25;102083.74;;;23.34;21.45
75188;BME280;63762;51.334;22.108;2023-05-10T16:36:32;102072.89;;;30.95;15.75
75188;BME280;63762;51.334;22.108;2023-05-10T16:46:39;102086.78;;;34.71;13.20
75188;BME280;63762;51.334;22.108;2023-05-10T16:56:46;102092.90;;;31.72;14.60
75188;BME280;63762;51.334;22.108;2023-05-10T17:06:53;102104.40;;;26.65;18.46
75188;BME280;63762;51.334;22.108;2023-05-10T17:17:00;102114.88;;;22.93;22.26
75188;BME280;63762;51.334;22.108;2023-05-10T17:27:07;102110.27;;;20.79;24.46
75188;BME280;63762;51.334;22.108;2023-05-10T17:37:14;102131.30;;;19.50;26.23
75188;BME280;63762;51.334;22.108;2023-05-10T17:47:22;102138.35;;;18.56;27.81
75188;BME280;63762;51.334;22.108;2023-05-10T17:57:28;102144.66;;;17.96;29.28
75188;BME280;63762;51.334;22.108;2023-05-10T18:07:36;102163.09;;;17.31;30.02
75188;BME280;63762;51.334;22.108;2023-05-10T18:17:43;102167.36;;;16.70;31.89
75188;BME280;63762;51.334;22.108;2023-05-10T18:27:50;102182.77;;;16.26;32.43
75188;BME280;63762;51.334;22.108;2023-05-10T18:37:57;102180.67;;;15.96;33.20
75188;BME280;63762;51.334;22.108;2023-05-10T18:48:05;102192.41;;;15.62;33.97
75188;BME280;63762;51.334;22.108;2023-05-10T18:58:11;102208.52;;;15.29;34.43
75188;BME280;63762;51.334;22.108;2023-05-10T19:11:27;102217.66;;;14.92;34.90
75188;BME280;63762;51.334;22.108;2023-05-10T19:21:34;102225.34;;;14.62;35.12
75188;BME280;63762;51.334;22.108;2023-05-10T19:31:41;102222.23;;;14.43;35.74
75188;BME280;63762;51.334;22.108;2023-05-10T19:41:48;102227.77;;;14.29;35.78
75188;BME280;63762;51.334;22.108;2023-05-10T19:51:55;102223.09;;;14.06;36.09
75188;BME280;63762;51.334;22.108;2023-05-10T20:02:02;102229.98;;;13.85;36.54
75188;BME280;63762;51.334;22.108;2023-05-10T20:12:10;102234.73;;;13.69;36.92
75188;BME280;63762;51.334;22.108;2023-05-10T20:22:16;102239.10;;;13.44;37.64
75188;BME280;63762;51.334;22.108;2023-05-10T20:32:23;102241.11;;;13.28;37.71
75188;BME280;63762;51.334;22.108;2023-05-10T20:42:31;102238.44;;;13.14;37.68
75188;BME280;63762;51.334;22.108;2023-05-10T20:52:38;102240.37;;;12.98;38.33
75188;BME280;63762;51.334;22.108;2023-05-10T21:02:45;102259.52;;;12.81;37.59
75188;BME280;63762;51.334;22.108;2023-05-10T21:12:54;102256.66;;;12.70;38.47
75188;BME280;63762;51.334;22.108;2023-05-10T21:22:59;102259.34;;;12.56;38.07
75188;BME280;63762;51.334;22.108;2023-05-10T21:33:06;102258.58;;;12.40;37.90
75188;BME280;63762;51.334;22.108;2023-05-10T21:43:13;102254.94;;;12.41;38.24
75188;BME280;63762;51.334;22.108;2023-05-10T21:53:21;102257.42;;;12.30;38.09
75188;BME280;63762;51.334;22.108;2023-05-10T22:03:28;102255.98;;;12.25;38.24
75188;BME280;63762;51.334;22.108;2023-05-10T22:13:35;102263.10;;;12.12;38.84
75188;BME280;63762;51.334;22.108;2023-05-10T22:23:42;102264.91;;;11.97;39.37
75188;BME280;63762;51.334;22.108;2023-05-10T22:33:49;102265.07;;;11.80;39.44
75188;BME280;63762;51.334;22.108;2023-05-10T22:43:56;102268.67;;;11.65;39.45
75188;BME280;63762;51.334;22.108;2023-05-10T22:54:03;102265.42;;;11.59;39.84
75188;BME280;63762;51.334;22.108;2023-05-10T23:04:10;102267.70;;;11.51;40.63
75188;BME280;63762;51.334;22.108;2023-05-10T23:14:18;102266.78;;;11.36;41.36
75188;BME280;63762;51.334;22.108;2023-05-10T23:24:25;102263.32;;;11.18;42.13
75188;BME280;63762;51.334;22.108;2023-05-10T23:34:32;102268.91;;;11.00;43.42
75188;BME280;63762;51.334;22.108;2023-05-10T23:44:39;102275.66;;;10.76;44.92
75188;BME280;63762;51.334;22.108;2023-05-10T23:54:46;102269.91;;;10.51;45.78
